sensor_id;sensor_type;location;lat;lon;timestamp;P1;durP1;ratioP1;P2;durP2;ratioP2
8632;SDS011;4354;49.832;10.746;2023-06-22T00:01:20;25.63;;;22.80;;
8632;SDS011;4354;49.832;10.746;2023-06-22T00:03:49;25.90;;;23.52;;
8632;SDS011;4354;49.832;10.746;2023-06-22T00:06:16;25.65;;;22.92;;
8632;SDS011;4354;49.832;10.746;2023-06-22T00:08:43;26.38;;;23.77;;
8632;SDS011;4354;49.832;10.746;2023-06-22T00:11:10;28.63;;;25.55;;
8632;SDS011;4354;49.832;10.746;2023-06-22T00:13:37;28.50;;;25.55;;
8632;SDS011;4354;49.832;10.746;2023-06-22T00:16:05;29.17;;;26.38;;
8632;SDS011;4354;49.832;10.746;2023-06-22T00:18:32;28.15;;;25.30;;
8632;SDS011;4354;49.832;10.746;2023-06-22T00:20:58;27.45;;;24.42;;
8632;SDS011;4354;49.832;10.746;2023-06-22T00:23:26;28.48;;;25.63;;
8632;SDS011;4354;49.832;10.746;2023-06-22T00:25:53;27.55;;;25.05;;
8632;SDS011;4354;49.832;10.746;2023-06-22T00:28:20;27.73;;;25.23;;
8632;SDS011;4354;49.832;10.746;2023-06-22T00:30:48;26.45;;;23.80;;
8632;SDS011;4354;49.832;10.746;2023-06-22T00:33:16;27.67;;;24.98;;
8632;SDS011;4354;49.832;10.746;2023-06-22T00:35:43;29.65;;;25.83;;
8632;SDS011;4354;49.832;10.746;2023-06-22T00:38:10;30.48;;;27.13;;
8632;SDS011;4354;49.832;10.746;2023-06-22T00:40:37;29.35;;;24.77;;
8632;SDS011;4354;49.832;10.746;2023-06-22T00:43:04;28.13;;;24.98;;
8632;SDS011;4354;49.832;10.746;2023-06-22T00:45:32;30.98;;;25.23;;
8632;SDS011;4354;49.832;10.746;2023-06-22T00:47:59;31.42;;;23.35;;
8632;SDS011;4354;49.832;10.746;2023-06-22T00:50:27;28.60;;;23.15;;
8632;SDS011;4354;49.832;10.746;2023-06-22T00:53:00;23.88;;;21.48;;
8632;SDS011;4354;49.832;10.746;2023-06-22T00:55:35;23.55;;;21.10;;
8632;SDS011;4354;49.832;10.746;2023-06-22T00:58:18;27.15;;;21.60;;
8632;SDS011;4354;49.832;10.746;2023-06-22T01:00:48;24.65;;;21.83;;
8632;SDS011;4354;49.832;10.746;2023-06-22T01:03:15;23.95;;;21.65;;
8632;SDS011;4354;49.832;10.746;2023-06-22T01:05:43;28.50;;;21.13;;
8632;SDS011;4354;49.832;10.746;2023-06-22T01:11:08;23.27;;;20.98;;
8632;SDS011;4354;49.832;10.746;2023-06-22T01:16:31;23.77;;;20.80;;
8632;SDS011;4354;49.832;10.746;2023-06-22T01:19:01;24.50;;;21.98;;
8632;SDS011;4354;49.832;10.746;2023-06-22T01:21:52;23.77;;;21.23;;
8632;SDS011;4354;49.832;10.746;2023-06-22T01:24:26;24.50;;;22.13;;
8632;SDS011;4354;49.832;10.746;2023-06-22T01:27:19;23.30;;;21.17;;
8632;SDS011;4354;49.832;10.746;2023-06-22T01:30:07;24.27;;;20.77;;
8632;SDS011;4354;49.832;10.746;2023-06-22T01:32:37;22.75;;;19.52;;
8632;SDS011;4354;49.832;10.746;2023-06-22T01:35:07;22.95;;;20.48;;
8632;SDS011;4354;49.832;10.746;2023-06-22T01:37:36;24.10;;;20.92;;
8632;SDS011;4354;49.832;10.746;2023-06-22T01:40:07;23.98;;;21.45;;
8632;SDS011;4354;49.832;10.746;2023-06-22T01:42:35;22.05;;;19.13;;
8632;SDS011;4354;49.832;10.746;2023-06-22T01:45:03;27.75;;;20.50;;
8632;SDS011;4354;49.832;10.746;2023-06-22T01:47:30;22.77;;;20.63;;
8632;SDS011;4354;49.832;10.746;2023-06-22T01:49:58;22.90;;;19.63;;
8632;SDS011;4354;49.832;10.746;2023-06-22T01:52:25;22.35;;;19.85;;
8632;SDS011;4354;49.832;10.746;2023-06-22T01:54:51;24.52;;;22.00;;
8632;SDS011;4354;49.832;10.746;2023-06-22T01:57:18;23.60;;;21.15;;
8632;SDS011;4354;49.832;10.746;2023-06-22T02:02:21;24.70;;;20.38;;
8632;SDS011;4354;49.832;10.746;2023-06-22T02:04:59;30.35;;;21.83;;
8632;SDS011;4354;49.832;10.746;2023-06-22T02:07:41;24.33;;;20.98;;
8632;SDS011;4354;49.832;10.746;2023-06-22T02:10:27;25.52;;;20.90;;
8632;SDS011;4354;49.832;10.746;2023-06-22T02:12:57;26.52;;;21.67;;
8632;SDS011;4354;49.832;10.746;2023-06-22T02:15:25;24.20;;;21.30;;
8632;SDS011;4354;49.832;10.746;2023-06-22T02:17:52;22.85;;;20.08;;
8632;SDS011;4354;49.832;10.746;2023-06-22T02:20:19;25.38;;;20.50;;
8632;SDS011;4354;49.832;10.746;2023-06-22T02:22:46;29.50;;;21.38;;
8632;SDS011;4354;49.832;10.746;2023-06-22T02:25:13;28.60;;;21.38;;
8632;SDS011;4354;49.832;10.746;2023-06-22T02:27:40;28.13;;;20.73;;
8632;SDS011;4354;49.832;10.746;2023-06-22T02:30:08;27.08;;;18.10;;
8632;SDS011;4354;49.832;10.746;2023-06-22T02:32:35;27.02;;;20.33;;
8632;SDS011;4354;49.832;10.746;2023-06-22T02:35:02;30.23;;;20.00;;
8632;SDS011;4354;49.832;10.746;2023-06-22T02:37:32;27.30;;;19.63;;
8632;SDS011;4354;49.832;10.746;2023-06-22T02:39:59;35.30;;;22.10;;
8632;SDS011;4354;49.832;10.746;2023-06-22T02:42:26;28.08;;;22.33;;
8632;SDS011;4354;49.832;10.746;2023-06-22T02:44:53;28.30;;;23.52;;
8632;SDS011;4354;49.832;10.746;2023-06-22T02:47:22;27.75;;;24.60;;
8632;SDS011;4354;49.832;10.746;2023-06-22T02:49:49;26.00;;;23.40;;
8632;SDS011;4354;49.832;10.746;2023-06-22T02:52:16;24.83;;;22.25;;
8632;SDS011;4354;49.832;10.746;2023-06-22T02:54:43;26.10;;;23.50;;
8632;SDS011;4354;49.832;10.746;2023-06-22T02:57:12;28.38;;;25.42;;
8632;SDS011;4354;49.832;10.746;2023-06-22T02:59:40;27.05;;;24.40;;
8632;SDS011;4354;49.832;10.746;2023-06-22T03:02:08;27.00;;;24.40;;
8632;SDS011;4354;49.832;10.746;2023-06-22T03:04:35;26.73;;;24.27;;
8632;SDS011;4354;49.832;10.746;2023-06-22T03:07:02;25.75;;;23.45;;
8632;SDS011;4354;49.832;10.746;2023-06-22T03:09:30;26.73;;;23.92;;
8632;SDS011;4354;49.832;10.746;2023-06-22T03:11:57;25.45;;;22.58;;
8632;SDS011;4354;49.832;10.746;2023-06-22T03:14:23;25.60;;;23.23;;
8632;SDS011;4354;49.832;10.746;2023-06-22T03:16:50;24.15;;;21.63;;
8632;SDS011;4354;49.832;10.746;2023-06-22T03:19:17;24.60;;;22.45;;
8632;SDS011;4354;49.832;10.746;2023-06-22T03:21:45;28.00;;;24.25;;
8632;SDS011;4354;49.832;10.746;2023-06-22T03:24:12;25.55;;;22.75;;
8632;SDS011;4354;49.832;10.746;2023-06-22T03:26:39;26.63;;;24.10;;
8632;SDS011;4354;49.832;10.746;2023-06-22T03:29:06;28.60;;;25.90;;
8632;SDS011;4354;49.832;10.746;2023-06-22T03:31:32;30.17;;;27.17;;
8632;SDS011;4354;49.832;10.746;2023-06-22T03:33:59;31.10;;;27.92;;
8632;SDS011;4354;49.832;10.746;2023-06-22T03:36:26;29.73;;;26.73;;
8632;SDS011;4354;49.832;10.746;2023-06-22T03:38:53;31.10;;;26.65;;
8632;SDS011;4354;49.832;10.746;2023-06-22T03:41:19;29.48;;;26.85;;
8632;SDS011;4354;49.832;10.746;2023-06-22T03:43:46;32.97;;;29.48;;
8632;SDS011;4354;49.832;10.746;2023-06-22T03:46:13;33.45;;;29.95;;
8632;SDS011;4354;49.832;10.746;2023-06-22T03:48:40;30.98;;;27.98;;
8632;SDS011;4354;49.832;10.746;2023-06-22T03:51:07;32.95;;;29.58;;
8632;SDS011;4354;49.832;10.746;2023-06-22T03:53:34;32.22;;;28.83;;
8632;SDS011;4354;49.832;10.746;2023-06-22T03:56:01;29.50;;;26.80;;
8632;SDS011;4354;49.832;10.746;2023-06-22T03:58:28;29.85;;;26.95;;
8632;SDS011;4354;49.832;10.746;2023-06-22T04:00:59;31.35;;;28.30;;
8632;SDS011;4354;49.832;10.746;2023-06-22T04:03:26;29.88;;;26.67;;
8632;SDS011;4354;49.832;10.746;2023-06-22T04:05:53;30.73;;;27.60;;
8632;SDS011;4354;49.832;10.746;2023-06-22T04:08:20;29.90;;;26.80;;
8632;SDS011;4354;49.832;10.746;2023-06-22T04:10:47;31.80;;;26.33;;
8632;SDS011;4354;49.832;10.746;2023-06-22T04:13:13;29.67;;;26.90;;
8632;SDS011;4354;49.832;10.746;2023-06-22T04:15:40;30.80;;;27.65;;
8632;SDS011;4354;49.832;10.746;2023-06-22T04:18:07;28.50;;;25.50;;
8632;SDS011;4354;49.832;10.746;2023-06-22T04:20:34;30.95;;;28.25;;
8632;SDS011;4354;49.832;10.746;2023-06-22T04:23:01;28.45;;;25.77;;
8632;SDS011;4354;49.832;10.746;2023-06-22T04:25:28;30.77;;;27.80;;
8632;SDS011;4354;49.832;10.746;2023-06-22T04:27:55;29.75;;;26.95;;
8632;SDS011;4354;49.832;10.746;2023-06-22T04:30:22;31.23;;;28.25;;
8632;SDS011;4354;49.832;10.746;2023-06-22T04:32:49;30.42;;;27.38;;
8632;SDS011;4354;49.832;10.746;2023-06-22T04:35:23;28.92;;;26.15;;
8632;SDS011;4354;49.832;10.746;2023-06-22T04:37:50;28.17;;;25.60;;
8632;SDS011;4354;49.832;10.746;2023-06-22T04:40:24;28.08;;;25.58;;
8632;SDS011;4354;49.832;10.746;2023-06-22T04:42:51;24.58;;;22.38;;
8632;SDS011;4354;49.832;10.746;2023-06-22T04:45:20;23.83;;;21.52;;
8632;SDS011;4354;49.832;10.746;2023-06-22T04:47:47;25.23;;;23.02;;
8632;SDS011;4354;49.832;10.746;2023-06-22T04:50:15;28.98;;;26.35;;
8632;SDS011;4354;49.832;10.746;2023-06-22T04:52:42;28.33;;;25.73;;
8632;SDS011;4354;49.832;10.746;2023-06-22T04:55:09;25.35;;;23.15;;
8632;SDS011;4354;49.832;10.746;2023-06-22T04:57:39;23.98;;;21.77;;
8632;SDS011;4354;49.832;10.746;2023-06-22T05:00:06;22.17;;;20.25;;
8632;SDS011;4354;49.832;10.746;2023-06-22T05:02:43;26.33;;;23.77;;
8632;SDS011;4354;49.832;10.746;2023-06-22T05:05:12;25.60;;;23.00;;
8632;SDS011;4354;49.832;10.746;2023-06-22T05:07:43;26.85;;;24.52;;
8632;SDS011;4354;49.832;10.746;2023-06-22T05:10:11;26.38;;;23.98;;
8632;SDS011;4354;49.832;10.746;2023-06-22T05:12:41;23.20;;;21.23;;
8632;SDS011;4354;49.832;10.746;2023-06-22T05:15:09;25.50;;;23.20;;
8632;SDS011;4354;49.832;10.746;2023-06-22T05:17:36;24.40;;;22.30;;
8632;SDS011;4354;49.832;10.746;2023-06-22T05:20:10;22.23;;;20.27;;
8632;SDS011;4354;49.832;10.746;2023-06-22T05:22:37;25.73;;;23.42;;
8632;SDS011;4354;49.832;10.746;2023-06-22T05:25:08;23.70;;;21.52;;
8632;SDS011;4354;49.832;10.746;2023-06-22T05:27:36;25.08;;;22.73;;
8632;SDS011;4354;49.832;10.746;2023-06-22T05:30:06;24.70;;;22.40;;
8632;SDS011;4354;49.832;10.746;2023-06-22T05:32:35;25.73;;;23.23;;
8632;SDS011;4354;49.832;10.746;2023-06-22T05:35:02;24.08;;;21.88;;
8632;SDS011;4354;49.832;10.746;2023-06-22T05:37:30;22.52;;;20.58;;
8632;SDS011;4354;49.832;10.746;2023-06-22T05:39:57;18.40;;;16.70;;
8632;SDS011;4354;49.832;10.746;2023-06-22T05:42:24;20.40;;;18.30;;
8632;SDS011;4354;49.832;10.746;2023-06-22T05:44:52;19.00;;;17.30;;
8632;SDS011;4354;49.832;10.746;2023-06-22T05:47:19;16.90;;;15.23;;
8632;SDS011;4354;49.832;10.746;2023-06-22T05:49:46;14.65;;;13.52;;
8632;SDS011;4354;49.832;10.746;2023-06-22T05:52:13;14.32;;;13.02;;
8632;SDS011;4354;49.832;10.746;2023-06-22T05:54:40;14.43;;;13.30;;
8632;SDS011;4354;49.832;10.746;2023-06-22T05:57:08;15.38;;;14.00;;
8632;SDS011;4354;49.832;10.746;2023-06-22T05:59:34;13.13;;;11.90;;
8632;SDS011;4354;49.832;10.746;2023-06-22T06:02:01;12.60;;;11.60;;
8632;SDS011;4354;49.832;10.746;2023-06-22T06:04:28;14.07;;;12.75;;
8632;SDS011;4354;49.832;10.746;2023-06-22T06:06:55;12.57;;;11.52;;
8632;SDS011;4354;49.832;10.746;2023-06-22T06:09:22;14.48;;;13.27;;
8632;SDS011;4354;49.832;10.746;2023-06-22T06:11:49;14.63;;;13.15;;
8632;SDS011;4354;49.832;10.746;2023-06-22T06:14:15;13.80;;;12.38;;
8632;SDS011;4354;49.832;10.746;2023-06-22T06:16:43;12.55;;;11.38;;
8632;SDS011;4354;49.832;10.746;2023-06-22T06:19:10;12.23;;;11.00;;
8632;SDS011;4354;49.832;10.746;2023-06-22T06:21:36;11.98;;;10.98;;
8632;SDS011;4354;49.832;10.746;2023-06-22T06:24:03;13.27;;;11.95;;
8632;SDS011;4354;49.832;10.746;2023-06-22T06:26:30;12.48;;;11.27;;
8632;SDS011;4354;49.832;10.746;2023-06-22T06:28:59;12.05;;;11.10;;
8632;SDS011;4354;49.832;10.746;2023-06-22T06:31:26;12.90;;;11.80;;
8632;SDS011;4354;49.832;10.746;2023-06-22T06:33:56;12.73;;;11.70;;
8632;SDS011;4354;49.832;10.746;2023-06-22T06:36:23;13.68;;;12.40;;
8632;SDS011;4354;49.832;10.746;2023-06-22T06:38:50;11.57;;;10.57;;
8632;SDS011;4354;49.832;10.746;2023-06-22T06:41:17;11.63;;;10.55;;
8632;SDS011;4354;49.832;10.746;2023-06-22T06:43:45;11.90;;;10.98;;
8632;SDS011;4354;49.832;10.746;2023-06-22T06:46:12;11.77;;;10.52;;
8632;SDS011;4354;49.832;10.746;2023-06-22T06:48:38;12.18;;;11.00;;
8632;SDS011;4354;49.832;10.746;2023-06-22T06:51:06;11.70;;;10.75;;
8632;SDS011;4354;49.832;10.746;2023-06-22T06:53:36;11.02;;;10.23;;
8632;SDS011;4354;49.832;10.746;2023-06-22T06:56:04;10.75;;;9.90;;
8632;SDS011;4354;49.832;10.746;2023-06-22T06:58:31;10.65;;;9.65;;
8632;SDS011;4354;49.832;10.746;2023-06-22T07:00:58;10.95;;;9.98;;
8632;SDS011;4354;49.832;10.746;2023-06-22T07:03:25;10.48;;;9.27;;
8632;SDS011;4354;49.832;10.746;2023-06-22T07:05:52;9.27;;;8.48;;
8632;SDS011;4354;49.832;10.746;2023-06-22T07:08:19;9.35;;;8.55;;
8632;SDS011;4354;49.832;10.746;2023-06-22T07:10:46;9.43;;;8.70;;
8632;SDS011;4354;49.832;10.746;2023-06-22T07:13:12;9.95;;;9.07;;
8632;SDS011;4354;49.832;10.746;2023-06-22T07:15:39;9.20;;;8.40;;
8632;SDS011;4354;49.832;10.746;2023-06-22T07:18:06;10.02;;;7.95;;
8632;SDS011;4354;49.832;10.746;2023-06-22T07:20:33;9.52;;;8.25;;
8632;SDS011;4354;49.832;10.746;2023-06-22T07:23:00;8.68;;;7.97;;
8632;SDS011;4354;49.832;10.746;2023-06-22T07:25:27;8.55;;;7.80;;
8632;SDS011;4354;49.832;10.746;2023-06-22T07:28:01;8.70;;;8.00;;
8632;SDS011;4354;49.832;10.746;2023-06-22T07:30:30;8.50;;;7.70;;
8632;SDS011;4354;49.832;10.746;2023-06-22T07:32:59;8.25;;;7.40;;
8632;SDS011;4354;49.832;10.746;2023-06-22T07:35:31;8.40;;;7.70;;
8632;SDS011;4354;49.832;10.746;2023-06-22T07:37:58;8.05;;;7.45;;
8632;SDS011;4354;49.832;10.746;2023-06-22T07:40:29;8.20;;;7.50;;
8632;SDS011;4354;49.832;10.746;2023-06-22T07:42:59;7.65;;;6.95;;
8632;SDS011;4354;49.832;10.746;2023-06-22T07:45:26;8.57;;;7.88;;
8632;SDS011;4354;49.832;10.746;2023-06-22T07:47:53;8.55;;;7.60;;
8632;SDS011;4354;49.832;10.746;2023-06-22T07:50:20;8.20;;;7.45;;
8632;SDS011;4354;49.832;10.746;2023-06-22T07:52:47;8.18;;;7.50;;
8632;SDS011;4354;49.832;10.746;2023-06-22T07:55:14;8.95;;;7.53;;
8632;SDS011;4354;49.832;10.746;2023-06-22T07:57:41;8.05;;;7.30;;
8632;SDS011;4354;49.832;10.746;2023-06-22T08:00:08;7.75;;;7.07;;
8632;SDS011;4354;49.832;10.746;2023-06-22T08:02:45;7.63;;;6.80;;
8632;SDS011;4354;49.832;10.746;2023-06-22T08:05:13;7.68;;;7.07;;
8632;SDS011;4354;49.832;10.746;2023-06-22T08:07:48;7.40;;;6.70;;
8632;SDS011;4354;49.832;10.746;2023-06-22T08:10:15;8.00;;;7.25;;
8632;SDS011;4354;49.832;10.746;2023-06-22T08:12:42;7.50;;;6.72;;
8632;SDS011;4354;49.832;10.746;2023-06-22T08:15:09;7.70;;;6.38;;
8632;SDS011;4354;49.832;10.746;2023-06-22T08:17:37;7.38;;;6.68;;
8632;SDS011;4354;49.832;10.746;2023-06-22T08:20:05;7.07;;;6.47;;
8632;SDS011;4354;49.832;10.746;2023-06-22T08:22:38;7.88;;;6.65;;
8632;SDS011;4354;49.832;10.746;2023-06-22T08:25:05;7.03;;;6.43;;
8632;SDS011;4354;49.832;10.746;2023-06-22T08:27:32;6.63;;;6.10;;
8632;SDS011;4354;49.832;10.746;2023-06-22T08:29:59;8.45;;;6.97;;
8632;SDS011;4354;49.832;10.746;2023-06-22T08:32:27;6.97;;;6.28;;
8632;SDS011;4354;49.832;10.746;2023-06-22T08:34:59;9.48;;;6.30;;
8632;SDS011;4354;49.832;10.746;2023-06-22T08:37:26;6.47;;;5.78;;
8632;SDS011;4354;49.832;10.746;2023-06-22T08:39:58;6.60;;;6.03;;
8632;SDS011;4354;49.832;10.746;2023-06-22T08:42:27;8.48;;;5.68;;
8632;SDS011;4354;49.832;10.746;2023-06-22T08:44:54;6.95;;;5.97;;
8632;SDS011;4354;49.832;10.746;2023-06-22T08:47:21;8.15;;;5.43;;
8632;SDS011;4354;49.832;10.746;2023-06-22T08:49:49;5.70;;;5.20;;
8632;SDS011;4354;49.832;10.746;2023-06-22T08:52:17;6.00;;;5.40;;
8632;SDS011;4354;49.832;10.746;2023-06-22T08:54:46;6.10;;;5.50;;
8632;SDS011;4354;49.832;10.746;2023-06-22T08:57:13;7.03;;;5.05;;
8632;SDS011;4354;49.832;10.746;2023-06-22T08:59:40;6.70;;;5.68;;
8632;SDS011;4354;49.832;10.746;2023-06-22T09:02:08;6.07;;;5.35;;
8632;SDS011;4354;49.832;10.746;2023-06-22T09:04:35;6.43;;;5.45;;
8632;SDS011;4354;49.832;10.746;2023-06-22T09:07:03;7.18;;;5.20;;
8632;SDS011;4354;49.832;10.746;2023-06-22T09:09:30;6.43;;;5.10;;
8632;SDS011;4354;49.832;10.746;2023-06-22T09:11:57;5.95;;;5.32;;
8632;SDS011;4354;49.832;10.746;2023-06-22T09:14:23;6.50;;;4.88;;
8632;SDS011;4354;49.832;10.746;2023-06-22T09:16:50;5.65;;;5.15;;
8632;SDS011;4354;49.832;10.746;2023-06-22T09:19:17;7.30;;;5.82;;
8632;SDS011;4354;49.832;10.746;2023-06-22T09:21:44;6.25;;;4.68;;
8632;SDS011;4354;49.832;10.746;2023-06-22T09:24:10;5.60;;;5.00;;
8632;SDS011;4354;49.832;10.746;2023-06-22T09:26:37;5.68;;;5.18;;
8632;SDS011;4354;49.832;10.746;2023-06-22T09:29:05;6.40;;;5.30;;
8632;SDS011;4354;49.832;10.746;2023-06-22T09:31:32;5.60;;;5.13;;
8632;SDS011;4354;49.832;10.746;2023-06-22T09:33:59;6.88;;;5.28;;
8632;SDS011;4354;49.832;10.746;2023-06-22T09:36:26;5.70;;;5.20;;
8632;SDS011;4354;49.832;10.746;2023-06-22T09:38:53;6.75;;;5.05;;
8632;SDS011;4354;49.832;10.746;2023-06-22T09:41:25;7.10;;;4.90;;
8632;SDS011;4354;49.832;10.746;2023-06-22T09:43:51;6.32;;;5.13;;
8632;SDS011;4354;49.832;10.746;2023-06-22T09:46:21;9.95;;;4.75;;
8632;SDS011;4354;49.832;10.746;2023-06-22T09:48:51;7.45;;;5.00;;
8632;SDS011;4354;49.832;10.746;2023-06-22T09:51:18;6.72;;;5.18;;
8632;SDS011;4354;49.832;10.746;2023-06-22T09:53:46;5.93;;;5.15;;
8632;SDS011;4354;49.832;10.746;2023-06-22T09:56:13;6.10;;;5.38;;
8632;SDS011;4354;49.832;10.746;2023-06-22T09:58:44;5.57;;;4.95;;
8632;SDS011;4354;49.832;10.746;2023-06-22T10:01:13;6.43;;;4.90;;
8632;SDS011;4354;49.832;10.746;2023-06-22T10:03:42;5.45;;;4.93;;
8632;SDS011;4354;49.832;10.746;2023-06-22T10:06:10;7.28;;;5.25;;
8632;SDS011;4354;49.832;10.746;2023-06-22T10:08:36;7.10;;;5.00;;
8632;SDS011;4354;49.832;10.746;2023-06-22T10:11:03;5.22;;;4.70;;
8632;SDS011;4354;49.832;10.746;2023-06-22T10:13:30;5.53;;;5.00;;
8632;SDS011;4354;49.832;10.746;2023-06-22T10:15:57;6.20;;;4.75;;
8632;SDS011;4354;49.832;10.746;2023-06-22T10:18:24;5.32;;;4.82;;
8632;SDS011;4354;49.832;10.746;2023-06-22T10:20:51;5.30;;;4.80;;
8632;SDS011;4354;49.832;10.746;2023-06-22T10:23:19;5.60;;;5.10;;
8632;SDS011;4354;49.832;10.746;2023-06-22T10:25:46;6.90;;;4.78;;
8632;SDS011;4354;49.832;10.746;2023-06-22T10:28:13;7.07;;;4.90;;
8632;SDS011;4354;49.832;10.746;2023-06-22T10:30:41;6.22;;;4.85;;
8632;SDS011;4354;49.832;10.746;2023-06-22T10:33:08;6.38;;;4.95;;
8632;SDS011;4354;49.832;10.746;2023-06-22T10:35:36;5.28;;;4.75;;
8632;SDS011;4354;49.832;10.746;2023-06-22T10:38:06;4.93;;;4.43;;
8632;SDS011;4354;49.832;10.746;2023-06-22T10:40:34;5.40;;;4.55;;
8632;SDS011;4354;49.832;10.746;2023-06-22T10:43:00;9.32;;;4.93;;
8632;SDS011;4354;49.832;10.746;2023-06-22T10:45:29;6.45;;;4.68;;
8632;SDS011;4354;49.832;10.746;2023-06-22T10:47:56;5.65;;;5.00;;
8632;SDS011;4354;49.832;10.746;2023-06-22T10:50:23;7.07;;;4.82;;
8632;SDS011;4354;49.832;10.746;2023-06-22T10:52:51;5.93;;;4.50;;
8632;SDS011;4354;49.832;10.746;2023-06-22T10:55:18;8.00;;;5.13;;
8632;SDS011;4354;49.832;10.746;2023-06-22T10:57:48;5.85;;;5.30;;
8632;SDS011;4354;49.832;10.746;2023-06-22T11:00:16;8.48;;;5.45;;
8632;SDS011;4354;49.832;10.746;2023-06-22T11:02:43;7.50;;;4.80;;
8632;SDS011;4354;49.832;10.746;2023-06-22T11:05:10;6.20;;;5.00;;
8632;SDS011;4354;49.832;10.746;2023-06-22T11:07:38;5.22;;;4.70;;
8632;SDS011;4354;49.832;10.746;2023-06-22T11:10:09;11.43;;;5.13;;
8632;SDS011;4354;49.832;10.746;2023-06-22T11:12:37;7.07;;;4.90;;
8632;SDS011;4354;49.832;10.746;2023-06-22T11:15:04;7.90;;;4.88;;
8632;SDS011;4354;49.832;10.746;2023-06-22T11:17:31;9.43;;;5.18;;
8632;SDS011;4354;49.832;10.746;2023-06-22T11:19:58;8.73;;;5.15;;
8632;SDS011;4354;49.832;10.746;2023-06-22T11:22:26;7.28;;;4.65;;
8632;SDS011;4354;49.832;10.746;2023-06-22T11:24:53;5.53;;;4.97;;
8632;SDS011;4354;49.832;10.746;2023-06-22T11:27:20;6.60;;;4.75;;
8632;SDS011;4354;49.832;10.746;2023-06-22T11:29:47;7.50;;;4.78;;
8632;SDS011;4354;49.832;10.746;2023-06-22T11:32:13;6.35;;;5.00;;
8632;SDS011;4354;49.832;10.746;2023-06-22T11:34:40;9.07;;;5.22;;
8632;SDS011;4354;49.832;10.746;2023-06-22T11:37:07;7.35;;;5.40;;
8632;SDS011;4354;49.832;10.746;2023-06-22T11:39:34;8.43;;;5.30;;
8632;SDS011;4354;49.832;10.746;2023-06-22T11:42:12;6.45;;;5.43;;
8632;SDS011;4354;49.832;10.746;2023-06-22T11:44:39;12.98;;;5.35;;
8632;SDS011;4354;49.832;10.746;2023-06-22T11:47:06;8.32;;;5.28;;
8632;SDS011;4354;49.832;10.746;2023-06-22T11:49:33;7.95;;;5.28;;
8632;SDS011;4354;49.832;10.746;2023-06-22T11:52:00;8.73;;;5.05;;
8632;SDS011;4354;49.832;10.746;2023-06-22T11:54:27;7.07;;;4.75;;
8632;SDS011;4354;49.832;10.746;2023-06-22T11:56:54;7.95;;;5.13;;
8632;SDS011;4354;49.832;10.746;2023-06-22T11:59:20;8.05;;;5.07;;
8632;SDS011;4354;49.832;10.746;2023-06-22T12:01:48;7.70;;;4.75;;
8632;SDS011;4354;49.832;10.746;2023-06-22T12:04:17;7.15;;;5.30;;
8632;SDS011;4354;49.832;10.746;2023-06-22T12:06:44;7.53;;;5.30;;
8632;SDS011;4354;49.832;10.746;2023-06-22T12:09:11;8.60;;;5.68;;
8632;SDS011;4354;49.832;10.746;2023-06-22T12:11:40;11.00;;;5.35;;
8632;SDS011;4354;49.832;10.746;2023-06-22T12:14:06;9.23;;;5.72;;
8632;SDS011;4354;49.832;10.746;2023-06-22T12:16:33;10.88;;;5.50;;
8632;SDS011;4354;49.832;10.746;2023-06-22T12:19:00;10.18;;;5.28;;
8632;SDS011;4354;49.832;10.746;2023-06-22T12:21:27;9.07;;;5.55;;
8632;SDS011;4354;49.832;10.746;2023-06-22T12:23:55;8.43;;;4.97;;
8632;SDS011;4354;49.832;10.746;2023-06-22T12:26:22;10.85;;;5.75;;
8632;SDS011;4354;49.832;10.746;2023-06-22T12:28:49;8.40;;;5.50;;
8632;SDS011;4354;49.832;10.746;2023-06-22T12:31:16;7.82;;;5.45;;
8632;SDS011;4354;49.832;10.746;2023-06-22T12:33:43;11.88;;;5.97;;
8632;SDS011;4354;49.832;10.746;2023-06-22T12:36:10;12.40;;;6.00;;
8632;SDS011;4354;49.832;10.746;2023-06-22T12:38:37;7.03;;;5.22;;
8632;SDS011;4354;49.832;10.746;2023-06-22T12:41:04;11.05;;;5.28;;
8632;SDS011;4354;49.832;10.746;2023-06-22T12:43:31;11.70;;;5.70;;
8632;SDS011;4354;49.832;10.746;2023-06-22T12:45:57;10.05;;;5.80;;
8632;SDS011;4354;49.832;10.746;2023-06-22T12:48:25;13.02;;;6.05;;
8632;SDS011;4354;49.832;10.746;2023-06-22T12:50:53;11.23;;;5.45;;
8632;SDS011;4354;49.832;10.746;2023-06-22T12:53:21;8.10;;;5.78;;
8632;SDS011;4354;49.832;10.746;2023-06-22T12:55:50;10.60;;;6.18;;
8632;SDS011;4354;49.832;10.746;2023-06-22T12:58:16;10.43;;;5.93;;
8632;SDS011;4354;49.832;10.746;2023-06-22T13:00:43;9.45;;;5.63;;
8632;SDS011;4354;49.832;10.746;2023-06-22T13:03:10;10.50;;;5.93;;
8632;SDS011;4354;49.832;10.746;2023-06-22T13:05:37;9.48;;;5.97;;
8632;SDS011;4354;49.832;10.746;2023-06-22T13:08:04;11.05;;;5.85;;
8632;SDS011;4354;49.832;10.746;2023-06-22T13:10:31;9.25;;;5.75;;
8632;SDS011;4354;49.832;10.746;2023-06-22T13:12:58;10.38;;;6.20;;
8632;SDS011;4354;49.832;10.746;2023-06-22T13:15:27;10.88;;;6.00;;
8632;SDS011;4354;49.832;10.746;2023-06-22T13:17:55;11.50;;;6.32;;
8632;SDS011;4354;49.832;10.746;2023-06-22T13:20:22;12.45;;;6.15;;
8632;SDS011;4354;49.832;10.746;2023-06-22T13:22:49;11.65;;;5.88;;
8632;SDS011;4354;49.832;10.746;2023-06-22T13:25:16;13.68;;;6.00;;
8632;SDS011;4354;49.832;10.746;2023-06-22T13:27:45;18.33;;;6.80;;
8632;SDS011;4354;49.832;10.746;2023-06-22T13:30:12;14.27;;;6.60;;
8632;SDS011;4354;49.832;10.746;2023-06-22T13:32:40;11.25;;;6.30;;
8632;SDS011;4354;49.832;10.746;2023-06-22T13:35:09;14.85;;;6.68;;
8632;SDS011;4354;49.832;10.746;2023-06-22T13:37:36;9.73;;;6.13;;
8632;SDS011;4354;49.832;10.746;2023-06-22T13:40:07;9.55;;;5.90;;
8632;SDS011;4354;49.832;10.746;2023-06-22T13:42:34;10.73;;;6.97;;
8632;SDS011;4354;49.832;10.746;2023-06-22T13:45:01;12.02;;;6.68;;
8632;SDS011;4354;49.832;10.746;2023-06-22T13:47:29;12.52;;;6.45;;
8632;SDS011;4354;49.832;10.746;2023-06-22T13:49:57;14.93;;;6.38;;
8632;SDS011;4354;49.832;10.746;2023-06-22T13:52:24;9.05;;;5.75;;
8632;SDS011;4354;49.832;10.746;2023-06-22T13:54:51;11.05;;;6.13;;
8632;SDS011;4354;49.832;10.746;2023-06-22T13:57:18;13.55;;;6.40;;
8632;SDS011;4354;49.832;10.746;2023-06-22T13:59:45;9.82;;;5.57;;
8632;SDS011;4354;49.832;10.746;2023-06-22T14:02:12;11.30;;;6.65;;
8632;SDS011;4354;49.832;10.746;2023-06-22T14:04:39;13.90;;;6.57;;
8632;SDS011;4354;49.832;10.746;2023-06-22T14:07:06;11.27;;;6.18;;
8632;SDS011;4354;49.832;10.746;2023-06-22T14:09:33;9.85;;;5.63;;
8632;SDS011;4354;49.832;10.746;2023-06-22T14:12:04;10.98;;;6.13;;
8632;SDS011;4354;49.832;10.746;2023-06-22T14:14:33;12.38;;;6.10;;
8632;SDS011;4354;49.832;10.746;2023-06-22T14:16:59;8.95;;;5.70;;
8632;SDS011;4354;49.832;10.746;2023-06-22T14:19:26;11.55;;;5.95;;
8632;SDS011;4354;49.832;10.746;2023-06-22T14:21:53;10.07;;;5.97;;
8632;SDS011;4354;49.832;10.746;2023-06-22T14:24:20;13.38;;;6.40;;
8632;SDS011;4354;49.832;10.746;2023-06-22T14:26:50;11.15;;;6.18;;
8632;SDS011;4354;49.832;10.746;2023-06-22T14:29:17;8.80;;;6.10;;
8632;SDS011;4354;49.832;10.746;2023-06-22T14:31:44;12.68;;;6.55;;
8632;SDS011;4354;49.832;10.746;2023-06-22T14:34:13;8.77;;;6.07;;
8632;SDS011;4354;49.832;10.746;2023-06-22T14:36:40;13.75;;;6.65;;
8632;SDS011;4354;49.832;10.746;2023-06-22T14:39:08;15.52;;;6.47;;
8632;SDS011;4354;49.832;10.746;2023-06-22T14:41:35;13.35;;;6.32;;
8632;SDS011;4354;49.832;10.746;2023-06-22T14:44:02;13.50;;;6.18;;
8632;SDS011;4354;49.832;10.746;2023-06-22T14:46:29;10.93;;;5.97;;
8632;SDS011;4354;49.832;10.746;2023-06-22T14:48:56;13.95;;;6.70;;
8632;SDS011;4354;49.832;10.746;2023-06-22T14:51:22;14.10;;;6.28;;
8632;SDS011;4354;49.832;10.746;2023-06-22T14:53:49;16.20;;;6.53;;
8632;SDS011;4354;49.832;10.746;2023-06-22T14:56:16;13.52;;;5.88;;
8632;SDS011;4354;49.832;10.746;2023-06-22T14:58:43;13.00;;;6.45;;
8632;SDS011;4354;49.832;10.746;2023-06-22T15:01:14;10.00;;;5.95;;